sensor_id;sensor_type;location;lat;lon;timestamp;P1;durP1;ratioP1;P2;durP2;ratioP2
6864;SDS011;3471;49.678;8.388;2023-08-01T00:01:25;8.70;;;3.35;;
6864;SDS011;3471;49.678;8.388;2023-08-01T00:03:51;8.00;;;3.50;;
6864;SDS011;3471;49.678;8.388;2023-08-01T00:06:16;6.20;;;4.73;;
6864;SDS011;3471;49.678;8.388;2023-08-01T00:08:42;6.37;;;4.20;;
6864;SDS011;3471;49.678;8.388;2023-08-01T00:11:07;9.07;;;3.50;;
6864;SDS011;3471;49.678;8.388;2023-08-01T00:13:35;11.77;;;4.10;;
6864;SDS011;3471;49.678;8.388;2023-08-01T00:16:00;6.03;;;4.77;;
6864;SDS011;3471;49.678;8.388;2023-08-01T00:18:26;6.60;;;3.10;;
6864;SDS011;3471;49.678;8.388;2023-08-01T00:20:52;8.50;;;4.50;;
6864;SDS011;3471;49.678;8.388;2023-08-01T00:23:18;7.32;;;3.65;;
6864;SDS011;3471;49.678;8.388;2023-08-01T00:25:44;5.72;;;4.07;;
6864;SDS011;3471;49.678;8.388;2023-08-01T00:28:16;5.10;;;4.60;;
6864;SDS011;3471;49.678;8.388;2023-08-01T00:30:47;7.88;;;5.97;;
6864;SDS011;3471;49.678;8.388;2023-08-01T00:33:12;6.77;;;3.47;;
6864;SDS011;3471;49.678;8.388;2023-08-01T00:35:38;4.90;;;4.40;;
6864;SDS011;3471;49.678;8.388;2023-08-01T00:38:04;10.60;;;4.90;;
6864;SDS011;3471;49.678;8.388;2023-08-01T00:40:30;6.77;;;4.50;;
6864;SDS011;3471;49.678;8.388;2023-08-01T00:42:56;4.75;;;3.58;;
6864;SDS011;3471;49.678;8.388;2023-08-01T00:45:22;5.13;;;3.90;;
6864;SDS011;3471;49.678;8.388;2023-08-01T00:47:50;9.90;;;4.10;;
6864;SDS011;3471;49.678;8.388;2023-08-01T00:50:16;9.48;;;4.43;;
6864;SDS011;3471;49.678;8.388;2023-08-01T00:52:45;9.85;;;4.25;;
6864;SDS011;3471;49.678;8.388;2023-08-01T00:55:11;8.85;;;4.57;;
6864;SDS011;3471;49.678;8.388;2023-08-01T00:57:37;5.22;;;4.03;;
6864;SDS011;3471;49.678;8.388;2023-08-01T01:00:03;6.90;;;3.95;;
6864;SDS011;3471;49.678;8.388;2023-08-01T01:02:29;4.70;;;3.35;;
6864;SDS011;3471;49.678;8.388;2023-08-01T01:04:55;5.90;;;3.22;;
6864;SDS011;3471;49.678;8.388;2023-08-01T01:07:20;8.00;;;5.18;;
6864;SDS011;3471;49.678;8.388;2023-08-01T01:09:47;9.60;;;3.85;;
6864;SDS011;3471;49.678;8.388;2023-08-01T01:12:13;4.90;;;3.45;;
6864;SDS011;3471;49.678;8.388;2023-08-01T01:14:38;5.20;;;4.67;;
6864;SDS011;3471;49.678;8.388;2023-08-01T01:17:04;8.70;;;3.97;;
6864;SDS011;3471;49.678;8.388;2023-08-01T01:19:30;4.85;;;3.50;;
6864;SDS011;3471;49.678;8.388;2023-08-01T01:21:59;11.73;;;4.20;;
6864;SDS011;3471;49.678;8.388;2023-08-01T01:24:28;5.68;;;4.25;;
6864;SDS011;3471;49.678;8.388;2023-08-01T01:26:54;11.60;;;5.70;;
6864;SDS011;3471;49.678;8.388;2023-08-01T01:29:21;11.40;;;4.30;;
6864;SDS011;3471;49.678;8.388;2023-08-01T01:31:48;3.92;;;2.88;;
6864;SDS011;3471;49.678;8.388;2023-08-01T01:34:15;4.50;;;3.65;;
6864;SDS011;3471;49.678;8.388;2023-08-01T01:36:40;5.37;;;3.50;;
6864;SDS011;3471;49.678;8.388;2023-08-01T01:39:06;6.97;;;3.40;;
6864;SDS011;3471;49.678;8.388;2023-08-01T01:41:32;5.90;;;3.60;;
6864;SDS011;3471;49.678;8.388;2023-08-01T01:43:57;4.73;;;4.10;;
6864;SDS011;3471;49.678;8.388;2023-08-01T01:46:23;5.70;;;3.80;;
6864;SDS011;3471;49.678;8.388;2023-08-01T01:48:48;5.60;;;2.93;;
6864;SDS011;3471;49.678;8.388;2023-08-01T01:51:14;7.60;;;3.77;;
6864;SDS011;3471;49.678;8.388;2023-08-01T01:53:39;6.07;;;4.47;;
6864;SDS011;3471;49.678;8.388;2023-08-01T01:56:05;8.57;;;4.50;;
6864;SDS011;3471;49.678;8.388;2023-08-01T01:58:30;7.47;;;3.53;;
6864;SDS011;3471;49.678;8.388;2023-08-01T02:00:56;6.27;;;4.70;;
6864;SDS011;3471;49.678;8.388;2023-08-01T02:03:22;12.07;;;4.60;;
6864;SDS011;3471;49.678;8.388;2023-08-01T02:05:47;5.40;;;4.67;;
6864;SDS011;3471;49.678;8.388;2023-08-01T02:08:13;7.93;;;3.33;;
6864;SDS011;3471;49.678;8.388;2023-08-01T02:10:39;3.90;;;3.60;;
6864;SDS011;3471;49.678;8.388;2023-08-01T02:13:04;10.38;;;4.05;;
6864;SDS011;3471;49.678;8.388;2023-08-01T02:15:30;9.45;;;5.32;;
6864;SDS011;3471;49.678;8.388;2023-08-01T02:17:56;6.72;;;4.80;;
6864;SDS011;3471;49.678;8.388;2023-08-01T02:20:21;8.35;;;4.53;;
6864;SDS011;3471;49.678;8.388;2023-08-01T02:22:47;6.10;;;4.53;;
6864;SDS011;3471;49.678;8.388;2023-08-01T02:25:12;7.32;;;3.92;;
6864;SDS011;3471;49.678;8.388;2023-08-01T02:27:38;5.90;;;3.88;;
6864;SDS011;3471;49.678;8.388;2023-08-01T02:30:04;16.80;;;4.20;;
6864;SDS011;3471;49.678;8.388;2023-08-01T02:32:30;8.35;;;5.75;;
6864;SDS011;3471;49.678;8.388;2023-08-01T02:34:56;9.52;;;5.10;;
6864;SDS011;3471;49.678;8.388;2023-08-01T02:37:21;4.30;;;3.90;;
6864;SDS011;3471;49.678;8.388;2023-08-01T02:39:47;6.23;;;4.43;;
6864;SDS011;3471;49.678;8.388;2023-08-01T02:42:12;7.60;;;4.77;;
6864;SDS011;3471;49.678;8.388;2023-08-01T02:44:38;7.80;;;4.97;;
6864;SDS011;3471;49.678;8.388;2023-08-01T02:47:04;4.80;;;3.13;;
6864;SDS011;3471;49.678;8.388;2023-08-01T02:49:31;4.40;;;4.00;;
6864;SDS011;3471;49.678;8.388;2023-08-01T02:51:56;5.90;;;4.13;;
6864;SDS011;3471;49.678;8.388;2023-08-01T02:54:23;4.68;;;4.15;;
6864;SDS011;3471;49.678;8.388;2023-08-01T02:56:49;5.32;;;3.88;;
6864;SDS011;3471;49.678;8.388;2023-08-01T02:59:16;7.78;;;4.57;;
6864;SDS011;3471;49.678;8.388;2023-08-01T03:01:43;8.38;;;6.30;;
6864;SDS011;3471;49.678;8.388;2023-08-01T03:04:09;7.47;;;6.77;;
6864;SDS011;3471;49.678;8.388;2023-08-01T03:06:36;5.30;;;3.67;;
6864;SDS011;3471;49.678;8.388;2023-08-01T03:09:02;6.32;;;5.82;;
6864;SDS011;3471;49.678;8.388;2023-08-01T03:11:28;4.57;;;3.63;;
6864;SDS011;3471;49.678;8.388;2023-08-01T03:13:54;7.90;;;4.50;;
6864;SDS011;3471;49.678;8.388;2023-08-01T03:16:19;6.67;;;5.03;;
6864;SDS011;3471;49.678;8.388;2023-08-01T03:18:45;8.57;;;5.40;;
6864;SDS011;3471;49.678;8.388;2023-08-01T03:21:10;3.77;;;3.40;;
6864;SDS011;3471;49.678;8.388;2023-08-01T03:23:36;5.60;;;3.20;;
6864;SDS011;3471;49.678;8.388;2023-08-01T03:26:02;7.43;;;3.40;;
6864;SDS011;3471;49.678;8.388;2023-08-01T03:28:28;4.90;;;3.40;;
6864;SDS011;3471;49.678;8.388;2023-08-01T03:30:53;3.83;;;2.70;;
6864;SDS011;3471;49.678;8.388;2023-08-01T03:33:20;10.10;;;4.30;;
6864;SDS011;3471;49.678;8.388;2023-08-01T03:35:46;5.22;;;4.72;;
6864;SDS011;3471;49.678;8.388;2023-08-01T03:38:12;8.52;;;5.65;;
6864;SDS011;3471;49.678;8.388;2023-08-01T03:40:37;4.50;;;4.10;;
6864;SDS011;3471;49.678;8.388;2023-08-01T03:43:03;11.00;;;10.30;;
6864;SDS011;3471;49.678;8.388;2023-08-01T03:45:30;4.07;;;3.50;;
6864;SDS011;3471;49.678;8.388;2023-08-01T03:47:55;5.10;;;4.60;;
6864;SDS011;3471;49.678;8.388;2023-08-01T03:50:21;6.07;;;5.00;;
6864;SDS011;3471;49.678;8.388;2023-08-01T03:52:46;6.37;;;4.37;;
6864;SDS011;3471;49.678;8.388;2023-08-01T03:55:12;4.03;;;3.60;;
6864;SDS011;3471;49.678;8.388;2023-08-01T03:57:37;4.40;;;3.83;;
6864;SDS011;3471;49.678;8.388;2023-08-01T04:00:05;5.10;;;4.37;;
6864;SDS011;3471;49.678;8.388;2023-08-01T04:02:31;8.68;;;4.97;;
6864;SDS011;3471;49.678;8.388;2023-08-01T04:04:57;5.68;;;5.25;;
6864;SDS011;3471;49.678;8.388;2023-08-01T04:07:22;43.35;;;39.55;;
6864;SDS011;3471;49.678;8.388;2023-08-01T04:09:48;16.05;;;14.98;;
6864;SDS011;3471;49.678;8.388;2023-08-01T04:12:13;19.20;;;6.15;;
6864;SDS011;3471;49.678;8.388;2023-08-01T04:14:39;5.43;;;4.20;;
6864;SDS011;3471;49.678;8.388;2023-08-01T04:17:05;5.63;;;5.13;;
6864;SDS011;3471;49.678;8.388;2023-08-01T04:19:31;6.83;;;4.17;;
6864;SDS011;3471;49.678;8.388;2023-08-01T04:21:56;9.40;;;8.73;;
6864;SDS011;3471;49.678;8.388;2023-08-01T04:24:22;4.57;;;3.97;;
6864;SDS011;3471;49.678;8.388;2023-08-01T04:26:50;5.00;;;3.90;;
6864;SDS011;3471;49.678;8.388;2023-08-01T04:29:16;10.52;;;4.40;;
6864;SDS011;3471;49.678;8.388;2023-08-01T04:31:42;4.80;;;4.30;;
6864;SDS011;3471;49.678;8.388;2023-08-01T04:34:08;5.07;;;3.50;;
6864;SDS011;3471;49.678;8.388;2023-08-01T04:36:34;4.13;;;3.77;;
6864;SDS011;3471;49.678;8.388;2023-08-01T04:38:59;5.57;;;4.17;;
6864;SDS011;3471;49.678;8.388;2023-08-01T04:41:25;4.95;;;3.72;;
6864;SDS011;3471;49.678;8.388;2023-08-01T04:43:51;8.10;;;4.20;;
6864;SDS011;3471;49.678;8.388;2023-08-01T04:46:17;5.60;;;4.50;;
6864;SDS011;3471;49.678;8.388;2023-08-01T04:48:42;5.57;;;3.87;;
6864;SDS011;3471;49.678;8.388;2023-08-01T04:51:08;3.60;;;3.30;;
6864;SDS011;3471;49.678;8.388;2023-08-01T04:53:33;8.00;;;5.00;;
6864;SDS011;3471;49.678;8.388;2023-08-01T04:55:59;6.07;;;3.67;;
6864;SDS011;3471;49.678;8.388;2023-08-01T04:58:24;4.77;;;3.63;;
6864;SDS011;3471;49.678;8.388;2023-08-01T05:00:50;13.90;;;10.60;;
6864;SDS011;3471;49.678;8.388;2023-08-01T05:03:16;45.92;;;42.00;;
6864;SDS011;3471;49.678;8.388;2023-08-01T05:05:41;337.57;;;322.43;;
6864;SDS011;3471;49.678;8.388;2023-08-01T05:08:07;72.50;;;68.90;;
6864;SDS011;3471;49.678;8.388;2023-08-01T05:10:33;418.20;;;397.70;;
6864;SDS011;3471;49.678;8.388;2023-08-01T05:12:58;355.67;;;338.67;;
6864;SDS011;3471;49.678;8.388;2023-08-01T05:15:24;98.37;;;93.97;;
6864;SDS011;3471;49.678;8.388;2023-08-01T05:17:49;58.43;;;55.60;;
6864;SDS011;3471;49.678;8.388;2023-08-01T05:20:15;30.52;;;28.52;;
6864;SDS011;3471;49.678;8.388;2023-08-01T05:22:41;54.00;;;50.55;;
6864;SDS011;3471;49.678;8.388;2023-08-01T05:25:06;28.48;;;25.98;;
6864;SDS011;3471;49.678;8.388;2023-08-01T05:27:32;49.63;;;47.13;;
6864;SDS011;3471;49.678;8.388;2023-08-01T05:29:59;47.50;;;44.70;;
6864;SDS011;3471;49.678;8.388;2023-08-01T05:32:24;33.55;;;31.65;;
6864;SDS011;3471;49.678;8.388;2023-08-01T05:34:50;36.10;;;34.28;;
6864;SDS011;3471;49.678;8.388;2023-08-01T05:37:16;122.70;;;117.22;;
6864;SDS011;3471;49.678;8.388;2023-08-01T05:39:41;255.10;;;242.75;;
6864;SDS011;3471;49.678;8.388;2023-08-01T05:42:07;255.33;;;244.87;;
6864;SDS011;3471;49.678;8.388;2023-08-01T05:44:35;226.93;;;217.07;;
6864;SDS011;3471;49.678;8.388;2023-08-01T05:47:00;42.78;;;40.58;;
6864;SDS011;3471;49.678;8.388;2023-08-01T05:49:26;58.45;;;55.67;;
6864;SDS011;3471;49.678;8.388;2023-08-01T05:51:53;58.42;;;55.22;;
6864;SDS011;3471;49.678;8.388;2023-08-01T05:54:18;25.30;;;23.30;;
6864;SDS011;3471;49.678;8.388;2023-08-01T05:56:44;17.83;;;16.63;;
6864;SDS011;3471;49.678;8.388;2023-08-01T05:59:09;18.10;;;16.90;;
6864;SDS011;3471;49.678;8.388;2023-08-01T06:01:35;12.67;;;11.47;;
6864;SDS011;3471;49.678;8.388;2023-08-01T06:04:01;19.13;;;17.40;;
6864;SDS011;3471;49.678;8.388;2023-08-01T06:06:27;13.63;;;12.70;;
6864;SDS011;3471;49.678;8.388;2023-08-01T06:08:52;17.37;;;16.17;;
6864;SDS011;3471;49.678;8.388;2023-08-01T06:11:18;37.07;;;35.20;;
6864;SDS011;3471;49.678;8.388;2023-08-01T06:13:44;5.10;;;4.70;;
6864;SDS011;3471;49.678;8.388;2023-08-01T06:16:09;5.30;;;4.30;;
6864;SDS011;3471;49.678;8.388;2023-08-01T06:18:36;5.50;;;4.40;;
6864;SDS011;3471;49.678;8.388;2023-08-01T06:21:01;6.60;;;5.47;;
6864;SDS011;3471;49.678;8.388;2023-08-01T06:23:27;4.38;;;3.40;;
6864;SDS011;3471;49.678;8.388;2023-08-01T06:25:53;6.93;;;4.17;;
6864;SDS011;3471;49.678;8.388;2023-08-01T06:28:18;6.00;;;5.40;;
6864;SDS011;3471;49.678;8.388;2023-08-01T06:30:45;9.13;;;8.43;;
6864;SDS011;3471;49.678;8.388;2023-08-01T06:33:10;21.08;;;19.23;;
6864;SDS011;3471;49.678;8.388;2023-08-01T06:35:36;7.13;;;5.50;;
6864;SDS011;3471;49.678;8.388;2023-08-01T06:38:01;3.63;;;3.33;;
6864;SDS011;3471;49.678;8.388;2023-08-01T06:40:27;6.17;;;5.17;;
6864;SDS011;3471;49.678;8.388;2023-08-01T06:42:53;6.17;;;5.70;;
6864;SDS011;3471;49.678;8.388;2023-08-01T06:45:18;5.57;;;5.07;;
6864;SDS011;3471;49.678;8.388;2023-08-01T06:47:44;6.37;;;4.03;;
6864;SDS011;3471;49.678;8.388;2023-08-01T06:50:09;5.40;;;4.63;;
6864;SDS011;3471;49.678;8.388;2023-08-01T06:52:35;8.77;;;8.27;;
6864;SDS011;3471;49.678;8.388;2023-08-01T06:55:00;5.00;;;3.00;;
6864;SDS011;3471;49.678;8.388;2023-08-01T06:57:26;4.47;;;3.38;;
6864;SDS011;3471;49.678;8.388;2023-08-01T06:59:52;6.20;;;3.38;;
6864;SDS011;3471;49.678;8.388;2023-08-01T07:02:18;2.50;;;2.30;;
6864;SDS011;3471;49.678;8.388;2023-08-01T07:04:44;7.70;;;3.53;;
6864;SDS011;3471;49.678;8.388;2023-08-01T07:07:09;4.63;;;3.13;;
6864;SDS011;3471;49.678;8.388;2023-08-01T07:09:37;3.33;;;2.85;;
6864;SDS011;3471;49.678;8.388;2023-08-01T07:12:02;8.73;;;3.10;;
6864;SDS011;3471;49.678;8.388;2023-08-01T07:14:28;4.78;;;3.50;;
6864;SDS011;3471;49.678;8.388;2023-08-01T07:16:54;4.60;;;2.83;;
6864;SDS011;3471;49.678;8.388;2023-08-01T07:19:19;3.10;;;2.53;;
6864;SDS011;3471;49.678;8.388;2023-08-01T07:21:45;4.17;;;3.00;;
6864;SDS011;3471;49.678;8.388;2023-08-01T07:24:12;5.00;;;3.13;;
6864;SDS011;3471;49.678;8.388;2023-08-01T07:26:39;3.50;;;2.50;;
6864;SDS011;3471;49.678;8.388;2023-08-01T07:29:04;5.07;;;2.23;;
6864;SDS011;3471;49.678;8.388;2023-08-01T07:31:30;2.63;;;2.17;;
6864;SDS011;3471;49.678;8.388;2023-08-01T07:33:56;2.83;;;2.43;;
6864;SDS011;3471;49.678;8.388;2023-08-01T07:36:21;2.73;;;1.87;;
6864;SDS011;3471;49.678;8.388;2023-08-01T07:38:47;2.60;;;2.40;;
6864;SDS011;3471;49.678;8.388;2023-08-01T07:41:12;7.00;;;1.90;;
6864;SDS011;3471;49.678;8.388;2023-08-01T07:43:38;4.03;;;2.20;;
6864;SDS011;3471;49.678;8.388;2023-08-01T07:46:03;3.50;;;1.80;;
6864;SDS011;3471;49.678;8.388;2023-08-01T07:48:29;7.00;;;2.67;;
6864;SDS011;3471;49.678;8.388;2023-08-01T07:50:54;2.60;;;2.00;;
6864;SDS011;3471;49.678;8.388;2023-08-01T07:53:20;1.80;;;1.50;;
6864;SDS011;3471;49.678;8.388;2023-08-01T07:55:46;3.33;;;1.43;;
6864;SDS011;3471;49.678;8.388;2023-08-01T07:58:11;1.40;;;1.00;;
6864;SDS011;3471;49.678;8.388;2023-08-01T08:00:37;4.03;;;1.30;;
6864;SDS011;3471;49.678;8.388;2023-08-01T08:03:03;1.70;;;1.50;;
6864;SDS011;3471;49.678;8.388;2023-08-01T08:05:30;2.95;;;2.65;;
6864;SDS011;3471;49.678;8.388;2023-08-01T08:07:56;4.70;;;2.53;;
6864;SDS011;3471;49.678;8.388;2023-08-01T08:10:22;2.10;;;1.90;;
6864;SDS011;3471;49.678;8.388;2023-08-01T08:12:48;5.30;;;1.95;;
6864;SDS011;3471;49.678;8.388;2023-08-01T08:15:13;2.60;;;1.30;;
6864;SDS011;3471;49.678;8.388;2023-08-01T08:17:40;1.83;;;1.27;;
6864;SDS011;3471;49.678;8.388;2023-08-01T08:20:06;3.00;;;2.13;;
6864;SDS011;3471;49.678;8.388;2023-08-01T08:22:32;1.90;;;1.40;;
6864;SDS011;3471;49.678;8.388;2023-08-01T08:24:58;2.10;;;1.50;;
6864;SDS011;3471;49.678;8.388;2023-08-01T08:27:23;4.80;;;1.60;;
6864;SDS011;3471;49.678;8.388;2023-08-01T08:29:49;3.97;;;1.30;;
6864;SDS011;3471;49.678;8.388;2023-08-01T08:32:15;1.85;;;1.10;;
6864;SDS011;3471;49.678;8.388;2023-08-01T08:34:41;2.00;;;1.40;;
6864;SDS011;3471;49.678;8.388;2023-08-01T08:37:06;1.90;;;1.02;;
6864;SDS011;3471;49.678;8.388;2023-08-01T08:39:32;2.50;;;1.80;;
6864;SDS011;3471;49.678;8.388;2023-08-01T08:41:58;2.40;;;1.05;;
6864;SDS011;3471;49.678;8.388;2023-08-01T08:44:24;3.80;;;1.30;;
6864;SDS011;3471;49.678;8.388;2023-08-01T08:46:51;1.65;;;1.02;;
6864;SDS011;3471;49.678;8.388;2023-08-01T08:49:18;2.60;;;1.80;;
6864;SDS011;3471;49.678;8.388;2023-08-01T08:51:47;2.60;;;1.30;;
6864;SDS011;3471;49.678;8.388;2023-08-01T08:54:15;2.10;;;1.20;;
6864;SDS011;3471;49.678;8.388;2023-08-01T08:56:41;1.60;;;1.10;;
6864;SDS011;3471;49.678;8.388;2023-08-01T08:59:07;2.60;;;1.90;;
6864;SDS011;3471;49.678;8.388;2023-08-01T09:01:35;1.70;;;0.95;;
6864;SDS011;3471;49.678;8.388;2023-08-01T09:04:01;1.80;;;1.10;;
6864;SDS011;3471;49.678;8.388;2023-08-01T09:06:31;2.40;;;1.20;;
6864;SDS011;3471;49.678;8.388;2023-08-01T09:11:49;3.03;;;1.50;;
6864;SDS011;3471;49.678;8.388;2023-08-01T09:14:16;2.10;;;1.30;;
6864;SDS011;3471;49.678;8.388;2023-08-01T09:16:43;2.10;;;1.27;;
6864;SDS011;3471;49.678;8.388;2023-08-01T09:19:09;1.80;;;1.30;;
6864;SDS011;3471;49.678;8.388;2023-08-01T09:21:38;7.10;;;2.00;;
6864;SDS011;3471;49.678;8.388;2023-08-01T09:24:11;2.10;;;1.42;;
6864;SDS011;3471;49.678;8.388;2023-08-01T09:26:38;2.65;;;1.33;;
6864;SDS011;3471;49.678;8.388;2023-08-01T09:29:04;2.40;;;1.92;;
6864;SDS011;3471;49.678;8.388;2023-08-01T09:31:31;6.50;;;2.13;;
6864;SDS011;3471;49.678;8.388;2023-08-01T09:34:04;2.65;;;1.42;;
6864;SDS011;3471;49.678;8.388;2023-08-01T09:36:31;2.20;;;1.60;;
6864;SDS011;3471;49.678;8.388;2023-08-01T09:38:58;2.33;;;1.50;;
6864;SDS011;3471;49.678;8.388;2023-08-01T09:41:25;3.10;;;1.75;;
6864;SDS011;3471;49.678;8.388;2023-08-01T09:43:50;3.63;;;1.80;;
6864;SDS011;3471;49.678;8.388;2023-08-01T09:46:16;1.98;;;1.10;;
6864;SDS011;3471;49.678;8.388;2023-08-01T09:48:42;1.85;;;1.40;;
6864;SDS011;3471;49.678;8.388;2023-08-01T09:51:09;2.17;;;1.08;;
6864;SDS011;3471;49.678;8.388;2023-08-01T09:53:46;5.20;;;2.20;;
6864;SDS011;3471;49.678;8.388;2023-08-01T09:56:13;4.00;;;1.80;;
6864;SDS011;3471;49.678;8.388;2023-08-01T09:58:41;1.60;;;1.23;;
6864;SDS011;3471;49.678;8.388;2023-08-01T10:01:08;2.30;;;1.63;;
6864;SDS011;3471;49.678;8.388;2023-08-01T10:03:33;2.77;;;1.47;;
6864;SDS011;3471;49.678;8.388;2023-08-01T10:05:59;1.50;;;1.20;;
6864;SDS011;3471;49.678;8.388;2023-08-01T10:08:27;3.13;;;1.48;;
6864;SDS011;3471;49.678;8.388;2023-08-01T10:10:54;3.80;;;1.95;;
6864;SDS011;3471;49.678;8.388;2023-08-01T10:13:22;4.40;;;1.67;;
6864;SDS011;3471;49.678;8.388;2023-08-01T10:15:49;2.42;;;1.27;;
6864;SDS011;3471;49.678;8.388;2023-08-01T10:18:18;1.80;;;1.17;;
6864;SDS011;3471;49.678;8.388;2023-08-01T10:20:45;1.73;;;1.10;;
6864;SDS011;3471;49.678;8.388;2023-08-01T10:23:12;2.03;;;1.23;;
6864;SDS011;3471;49.678;8.388;2023-08-01T10:25:38;2.08;;;1.40;;
6864;SDS011;3471;49.678;8.388;2023-08-01T10:28:05;3.33;;;1.48;;
6864;SDS011;3471;49.678;8.388;2023-08-01T10:30:31;3.40;;;1.88;;
6864;SDS011;3471;49.678;8.388;2023-08-01T10:32:57;2.90;;;1.70;;
6864;SDS011;3471;49.678;8.388;2023-08-01T10:35:36;6.00;;;1.50;;
6864;SDS011;3471;49.678;8.388;2023-08-01T10:38:06;2.95;;;1.65;;
6864;SDS011;3471;49.678;8.388;2023-08-01T10:40:36;3.60;;;2.05;;
6864;SDS011;3471;49.678;8.388;2023-08-01T10:43:03;2.87;;;2.30;;
6864;SDS011;3471;49.678;8.388;2023-08-01T10:45:29;2.67;;;1.70;;
6864;SDS011;3471;49.678;8.388;2023-08-01T10:48:08;5.00;;;1.50;;
6864;SDS011;3471;49.678;8.388;2023-08-01T10:50:36;3.90;;;1.75;;
6864;SDS011;3471;49.678;8.388;2023-08-01T10:53:02;5.18;;;1.30;;
6864;SDS011;3471;49.678;8.388;2023-08-01T10:55:39;3.20;;;2.05;;
6864;SDS011;3471;49.678;8.388;2023-08-01T10:58:12;4.43;;;1.80;;
6864;SDS011;3471;49.678;8.388;2023-08-01T11:00:38;1.90;;;1.70;;
6864;SDS011;3471;49.678;8.388;2023-08-01T11:03:03;2.38;;;1.88;;
6864;SDS011;3471;49.678;8.388;2023-08-01T11:05:29;1.60;;;1.00;;
6864;SDS011;3471;49.678;8.388;2023-08-01T11:07:55;3.10;;;1.33;;
6864;SDS011;3471;49.678;8.388;2023-08-01T11:10:23;1.98;;;1.40;;
6864;SDS011;3471;49.678;8.388;2023-08-01T11:12:55;4.28;;;2.55;;
6864;SDS011;3471;49.678;8.388;2023-08-01T11:15:21;2.80;;;2.20;;
6864;SDS011;3471;49.678;8.388;2023-08-01T11:17:47;3.22;;;1.17;;
6864;SDS011;3471;49.678;8.388;2023-08-01T11:20:14;2.40;;;1.60;;
6864;SDS011;3471;49.678;8.388;2023-08-01T11:22:51;4.80;;;2.10;;
6864;SDS011;3471;49.678;8.388;2023-08-01T11:25:37;3.03;;;2.00;;
6864;SDS011;3471;49.678;8.388;2023-08-01T11:28:08;2.90;;;1.85;;
6864;SDS011;3471;49.678;8.388;2023-08-01T11:30:35;5.07;;;1.48;;
6864;SDS011;3471;49.678;8.388;2023-08-01T11:33:02;2.40;;;1.50;;
6864;SDS011;3471;49.678;8.388;2023-08-01T11:35:37;4.50;;;1.40;;
6864;SDS011;3471;49.678;8.388;2023-08-01T11:38:03;3.50;;;2.17;;
6864;SDS011;3471;49.678;8.388;2023-08-01T11:40:31;7.80;;;2.83;;
6864;SDS011;3471;49.678;8.388;2023-08-01T11:42:57;3.00;;;1.60;;
6864;SDS011;3471;49.678;8.388;2023-08-01T11:45:23;3.70;;;1.85;;
6864;SDS011;3471;49.678;8.388;2023-08-01T11:47:50;2.20;;;1.50;;
6864;SDS011;3471;49.678;8.388;2023-08-01T11:50:22;2.50;;;1.92;;
6864;SDS011;3471;49.678;8.388;2023-08-01T11:52:49;2.40;;;1.98;;
6864;SDS011;3471;49.678;8.388;2023-08-01T11:57:54;3.80;;;1.50;;
6864;SDS011;3471;49.678;8.388;2023-08-01T12:00:23;3.07;;;1.90;;
6864;SDS011;3471;49.678;8.388;2023-08-01T12:02:50;3.75;;;1.70;;
6864;SDS011;3471;49.678;8.388;2023-08-01T12:05:23;3.00;;;1.85;;
6864;SDS011;3471;49.678;8.388;2023-08-01T12:07:49;2.88;;;1.90;;
6864;SDS011;3471;49.678;8.388;2023-08-01T12:10:15;5.00;;;1.90;;
6864;SDS011;3471;49.678;8.388;2023-08-01T12:12:44;1.90;;;1.50;;
6864;SDS011;3471;49.678;8.388;2023-08-01T12:15:12;7.25;;;1.88;;
6864;SDS011;3471;49.678;8.388;2023-08-01T12:17:39;4.30;;;2.20;;
6864;SDS011;3471;49.678;8.388;2023-08-01T12:20:05;3.73;;;2.00;;
6864;SDS011;3471;49.678;8.388;2023-08-01T12:22:31;3.33;;;1.98;;
6864;SDS011;3471;49.678;8.388;2023-08-01T12:24:57;3.30;;;1.90;;
6864;SDS011;3471;49.678;8.388;2023-08-01T12:27:23;2.33;;;1.52;;
6864;SDS011;3471;49.678;8.388;2023-08-01T12:29:49;2.97;;;1.50;;
6864;SDS011;3471;49.678;8.388;2023-08-01T12:32:14;3.17;;;2.60;;
6864;SDS011;3471;49.678;8.388;2023-08-01T12:34:40;2.20;;;1.30;;
6864;SDS011;3471;49.678;8.388;2023-08-01T12:37:05;3.83;;;2.38;;
6864;SDS011;3471;49.678;8.388;2023-08-01T12:39:31;4.37;;;2.10;;
6864;SDS011;3471;49.678;8.388;2023-08-01T12:41:56;4.30;;;1.90;;
6864;SDS011;3471;49.678;8.388;2023-08-01T12:44:22;6.53;;;2.07;;
6864;SDS011;3471;49.678;8.388;2023-08-01T12:46:47;2.80;;;1.30;;
6864;SDS011;3471;49.678;8.388;2023-08-01T12:49:13;3.40;;;1.58;;
6864;SDS011;3471;49.678;8.388;2023-08-01T12:51:39;2.83;;;1.60;;
6864;SDS011;3471;49.678;8.388;2023-08-01T12:54:04;2.25;;;1.15;;
6864;SDS011;3471;49.678;8.388;2023-08-01T12:56:31;3.03;;;2.20;;
6864;SDS011;3471;49.678;8.388;2023-08-01T12:58:56;2.10;;;1.40;;
6864;SDS011;3471;49.678;8.388;2023-08-01T13:01:22;3.40;;;1.90;;
6864;SDS011;3471;49.678;8.388;2023-08-01T13:03:48;2.50;;;1.70;;
6864;SDS011;3471;49.678;8.388;2023-08-01T13:06:13;4.33;;;2.03;;
6864;SDS011;3471;49.678;8.388;2023-08-01T13:08:39;1.98;;;1.58;;
6864;SDS011;3471;49.678;8.388;2023-08-01T13:11:11;5.20;;;1.70;;
6864;SDS011;3471;49.678;8.388;2023-08-01T13:13:38;1.77;;;1.40;;
6864;SDS011;3471;49.678;8.388;2023-08-01T13:16:05;3.50;;;2.10;;
6864;SDS011;3471;49.678;8.388;2023-08-01T13:18:30;6.75;;;3.38;;
6864;SDS011;3471;49.678;8.388;2023-08-01T13:20:56;4.38;;;2.75;;
6864;SDS011;3471;49.678;8.388;2023-08-01T13:23:24;3.13;;;2.03;;
6864;SDS011;3471;49.678;8.388;2023-08-01T13:25:50;4.77;;;2.07;;
6864;SDS011;3471;49.678;8.388;2023-08-01T13:28:16;6.30;;;3.20;;
6864;SDS011;3471;49.678;8.388;2023-08-01T13:30:41;3.60;;;2.03;;
6864;SDS011;3471;49.678;8.388;2023-08-01T13:33:07;2.07;;;1.50;;
6864;SDS011;3471;49.678;8.388;2023-08-01T13:35:32;4.50;;;1.70;;
6864;SDS011;3471;49.678;8.388;2023-08-01T13:37:58;5.55;;;2.05;;
6864;SDS011;3471;49.678;8.388;2023-08-01T13:40:24;2.80;;;1.70;;
6864;SDS011;3471;49.678;8.388;2023-08-01T13:42:50;3.80;;;2.10;;
6864;SDS011;3471;49.678;8.388;2023-08-01T13:45:16;4.70;;;2.43;;
6864;SDS011;3471;49.678;8.388;2023-08-01T13:47:41;3.65;;;2.63;;
6864;SDS011;3471;49.678;8.388;2023-08-01T13:50:07;4.90;;;2.22;;
6864;SDS011;3471;49.678;8.388;2023-08-01T13:52:33;2.50;;;1.75;;
6864;SDS011;3471;49.678;8.388;2023-08-01T13:55:01;2.03;;;1.52;;
6864;SDS011;3471;49.678;8.388;2023-08-01T13:57:28;3.17;;;2.20;;
6864;SDS011;3471;49.678;8.388;2023-08-01T13:59:53;6.57;;;2.90;;
6864;SDS011;3471;49.678;8.388;2023-08-01T14:02:19;3.50;;;2.07;;
6864;SDS011;3471;49.678;8.388;2023-08-01T14:04:44;2.60;;;1.80;;
6864;SDS011;3471;49.678;8.388;2023-08-01T14:07:10;3.93;;;3.00;;
6864;SDS011;3471;49.678;8.388;2023-08-01T14:09:35;3.40;;;2.10;;
6864;SDS011;3471;49.678;8.388;2023-08-01T14:12:01;2.23;;;1.60;;
6864;SDS011;3471;49.678;8.388;2023-08-01T14:14:29;3.03;;;1.70;;
6864;SDS011;3471;49.678;8.388;2023-08-01T14:16:54;3.22;;;2.10;;
6864;SDS011;3471;49.678;8.388;2023-08-01T14:19:20;4.18;;;2.63;;
6864;SDS011;3471;49.678;8.388;2023-08-01T14:21:45;3.60;;;2.70;;
6864;SDS011;3471;49.678;8.388;2023-08-01T14:24:11;4.23;;;2.07;;
6864;SDS011;3471;49.678;8.388;2023-08-01T14:26:36;2.63;;;1.98;;
6864;SDS011;3471;49.678;8.388;2023-08-01T14:29:02;2.95;;;2.00;;
6864;SDS011;3471;49.678;8.388;2023-08-01T14:31:28;3.67;;;2.20;;
6864;SDS011;3471;49.678;8.388;2023-08-01T14:33:53;2.93;;;1.80;;
6864;SDS011;3471;49.678;8.388;2023-08-01T14:36:19;3.35;;;2.83;;
6864;SDS011;3471;49.678;8.388;2023-08-01T14:38:44;3.15;;;1.70;;
6864;SDS011;3471;49.678;8.388;2023-08-01T14:41:12;5.32;;;1.65;;
6864;SDS011;3471;49.678;8.388;2023-08-01T14:43:39;3.70;;;1.80;;
6864;SDS011;3471;49.678;8.388;2023-08-01T14:46:05;3.20;;;1.60;;
6864;SDS011;3471;49.678;8.388;2023-08-01T14:48:31;4.25;;;1.73;;
6864;SDS011;3471;49.678;8.388;2023-08-01T14:50:56;3.10;;;1.42;;
6864;SDS011;3471;49.678;8.388;2023-08-01T14:53:22;2.73;;;1.60;;
6864;SDS011;3471;49.678;8.388;2023-08-01T14:55:55;2.30;;;1.90;;
6864;SDS011;3471;49.678;8.388;2023-08-01T14:58:21;6.30;;;2.60;;
6864;SDS011;3471;49.678;8.388;2023-08-01T15:00:47;2.80;;;2.25;;
6864;SDS011;3471;49.678;8.388;2023-08-01T15:03:13;3.80;;;1.70;;
6864;SDS011;3471;49.678;8.388;2023-08-01T15:05:39;5.57;;;2.80;;
6864;SDS011;3471;49.678;8.388;2023-08-01T15:08:04;3.20;;;1.80;;
6864;SDS011;3471;49.678;8.388;2023-08-01T15:10:30;2.75;;;1.98;;
6864;SDS011;3471;49.678;8.388;2023-08-01T15:12:56;3.80;;;2.30;;